sensor_id;sensor_type;location;lat;lon;timestamp;pressure;altitude;pressure_sealevel;temperature;humidity
51297;BME280;37380;45.186;9.792;2023-02-19T00:01:51;101972.50;;;4.81;100.00
51297;BME280;37380;45.186;9.792;2023-02-19T00:04:52;101971.94;;;4.85;100.00
51297;BME280;37380;45.186;9.792;2023-02-19T00:07:31;101956.50;;;4.74;100.00
51297;BME280;37380;45.186;9.792;2023-02-19T00:09:58;101969.03;;;4.80;100.00
51297;BME280;37380;45.186;9.792;2023-02-19T00:12:31;101970.06;;;4.50;100.00
51297;BME280;37380;45.186;9.792;2023-02-19T00:15:33;102014.56;;;4.56;100.00
51297;BME280;37380;45.186;9.792;2023-02-19T00:18:34;102005.69;;;4.74;100.00
51297;BME280;37380;45.186;9.792;2023-02-19T00:21:35;101987.19;;;4.70;100.00
51297;BME280;37380;45.186;9.792;2023-02-19T00:24:30;101990.38;;;4.78;100.00
51297;BME280;37380;45.186;9.792;2023-02-19T00:26:57;101983.63;;;4.80;100.00
51297;BME280;37380;45.186;9.792;2023-02-19T00:29:24;101950.41;;;4.52;100.00
51297;BME280;37380;45.186;9.792;2023-02-19T00:31:51;101974.63;;;4.74;100.00
51297;BME280;37380;45.186;9.792;2023-02-19T00:34:18;101998.81;;;4.75;100.00
51297;BME280;37380;45.186;9.792;2023-02-19T00:36:45;101916.34;;;4.03;100.00
51297;BME280;37380;45.186;9.792;2023-02-19T00:39:18;101942.75;;;4.31;100.00
51297;BME280;37380;45.186;9.792;2023-02-19T00:42:20;101983.25;;;4.31;100.00
51297;BME280;37380;45.186;9.792;2023-02-19T00:45:23;101950.38;;;4.30;100.00
51297;BME280;37380;45.186;9.792;2023-02-19T00:48:14;101997.34;;;4.57;100.00
51297;BME280;37380;45.186;9.792;2023-02-19T00:51:09;101957.97;;;4.39;100.00
51297;BME280;37380;45.186;9.792;2023-02-19T00:53:36;101991.91;;;4.31;100.00
51297;BME280;37380;45.186;9.792;2023-02-19T00:56:03;101962.41;;;3.97;100.00
51297;BME280;37380;45.186;9.792;2023-02-19T00:58:31;102001.44;;;4.43;100.00
51297;BME280;37380;45.186;9.792;2023-02-19T01:00:57;101989.03;;;4.39;100.00
51297;BME280;37380;45.186;9.792;2023-02-19T01:03:25;101987.31;;;4.17;100.00
51297;BME280;37380;45.186;9.792;2023-02-19T01:05:52;101962.22;;;4.16;100.00
51297;BME280;37380;45.186;9.792;2023-02-19T01:08:27;101994.19;;;4.39;100.00
51297;BME280;37380;45.186;9.792;2023-02-19T01:11:22;101980.91;;;4.34;100.00
51297;BME280;37380;45.186;9.792;2023-02-19T01:13:49;101996.13;;;4.41;100.00
51297;BME280;37380;45.186;9.792;2023-02-19T01:16:23;101996.69;;;4.37;100.00
51297;BME280;37380;45.186;9.792;2023-02-19T01:19:24;101975.59;;;4.32;100.00
51297;BME280;37380;45.186;9.792;2023-02-19T01:22:18;101959.06;;;4.30;100.00
51297;BME280;37380;45.186;9.792;2023-02-19T01:25:05;101963.25;;;4.18;100.00
51297;BME280;37380;45.186;9.792;2023-02-19T01:27:32;101923.75;;;3.99;100.00
51297;BME280;37380;45.186;9.792;2023-02-19T01:29:59;101961.28;;;4.26;100.00
51297;BME280;37380;45.186;9.792;2023-02-19T01:32:27;101949.25;;;4.26;100.00
51297;BME280;37380;45.186;9.792;2023-02-19T01:34:53;101925.66;;;4.01;100.00
51297;BME280;37380;45.186;9.792;2023-02-19T01:37:20;101924.03;;;3.92;100.00
51297;BME280;37380;45.186;9.792;2023-02-19T01:39:49;101972.34;;;4.13;100.00
51297;BME280;37380;45.186;9.792;2023-02-19T01:42:16;101903.81;;;3.76;100.00
51297;BME280;37380;45.186;9.792;2023-02-19T01:47:17;101893.72;;;3.79;100.00
51297;BME280;37380;45.186;9.792;2023-02-19T01:50:12;101969.59;;;4.12;100.00
51297;BME280;37380;45.186;9.792;2023-02-19T01:52:39;101891.53;;;3.73;100.00
51297;BME280;37380;45.186;9.792;2023-02-19T01:55:10;101948.44;;;3.95;100.00
51297;BME280;37380;45.186;9.792;2023-02-19T01:57:41;101969.38;;;4.08;100.00
51297;BME280;37380;45.186;9.792;2023-02-19T02:00:13;101960.22;;;4.02;100.00
51297;BME280;37380;45.186;9.792;2023-02-19T02:02:50;101969.81;;;3.93;100.00
51297;BME280;37380;45.186;9.792;2023-02-19T02:05:53;101945.25;;;3.88;100.00
51297;BME280;37380;45.186;9.792;2023-02-19T02:08:22;101892.72;;;3.67;100.00
51297;BME280;37380;45.186;9.792;2023-02-19T02:11:08;101934.94;;;3.77;100.00
51297;BME280;37380;45.186;9.792;2023-02-19T02:13:37;101964.91;;;3.96;100.00
51297;BME280;37380;45.186;9.792;2023-02-19T02:23:19;101955.47;;;3.86;100.00
51297;BME280;37380;45.186;9.792;2023-02-19T02:31:22;101935.88;;;3.57;100.00
51297;BME280;37380;45.186;9.792;2023-02-19T02:34:07;101924.16;;;3.61;100.00
51297;BME280;37380;45.186;9.792;2023-02-19T02:36:42;101945.53;;;3.80;100.00
51297;BME280;37380;45.186;9.792;2023-02-19T02:39:23;101922.47;;;3.61;100.00
51297;BME280;37380;45.186;9.792;2023-02-19T02:42:25;101920.16;;;3.44;100.00
51297;BME280;37380;45.186;9.792;2023-02-19T02:45:30;101907.63;;;3.28;100.00
51297;BME280;37380;45.186;9.792;2023-02-19T02:51:17;101888.06;;;3.20;100.00
51297;BME280;37380;45.186;9.792;2023-02-19T02:54:11;101910.47;;;3.31;100.00
51297;BME280;37380;45.186;9.792;2023-02-19T02:57:06;101887.22;;;3.31;100.00
51297;BME280;37380;45.186;9.792;2023-02-19T02:59:48;101929.59;;;3.44;100.00
51297;BME280;37380;45.186;9.792;2023-02-19T03:02:42;101929.72;;;3.25;100.00
51297;BME280;37380;45.186;9.792;2023-02-19T03:05:17;101926.22;;;3.34;100.00
51297;BME280;37380;45.186;9.792;2023-02-19T03:08:16;101923.28;;;3.30;100.00
51297;BME280;37380;45.186;9.792;2023-02-19T03:11:08;101878.63;;;3.00;100.00
51297;BME280;37380;45.186;9.792;2023-02-19T03:14:03;101900.16;;;3.31;100.00
51297;BME280;37380;45.186;9.792;2023-02-19T03:17:02;101869.31;;;3.12;100.00
51297;BME280;37380;45.186;9.792;2023-02-19T03:20:24;101912.38;;;3.54;100.00
51297;BME280;37380;45.186;9.792;2023-02-19T03:23:21;101887.75;;;3.37;100.00
51297;BME280;37380;45.186;9.792;2023-02-19T03:26:10;101854.47;;;3.10;100.00
51297;BME280;37380;45.186;9.792;2023-02-19T03:28:46;101880.66;;;3.25;100.00
51297;BME280;37380;45.186;9.792;2023-02-19T03:31:37;101893.56;;;3.25;100.00
51297;BME280;37380;45.186;9.792;2023-02-19T03:34:10;101911.16;;;3.29;100.00
51297;BME280;37380;45.186;9.792;2023-02-19T03:36:49;101866.59;;;3.11;100.00
51297;BME280;37380;45.186;9.792;2023-02-19T03:39:20;101912.66;;;3.37;100.00
51297;BME280;37380;45.186;9.792;2023-02-19T03:41:56;101909.56;;;3.31;100.00
51297;BME280;37380;45.186;9.792;2023-02-19T03:44:52;101886.13;;;2.97;100.00
51297;BME280;37380;45.186;9.792;2023-02-19T03:51:12;101902.50;;;2.87;100.00
51297;BME280;37380;45.186;9.792;2023-02-19T04:02:15;101901.88;;;3.00;100.00
51297;BME280;37380;45.186;9.792;2023-02-19T04:05:06;101911.66;;;3.04;100.00
51297;BME280;37380;45.186;9.792;2023-02-19T04:07:41;101801.97;;;2.38;100.00
51297;BME280;37380;45.186;9.792;2023-02-19T04:10:11;101853.97;;;2.42;100.00
51297;BME280;37380;45.186;9.792;2023-02-19T04:12:58;101857.59;;;2.65;100.00
51297;BME280;37380;45.186;9.792;2023-02-19T04:15:30;101890.50;;;2.78;100.00
51297;BME280;37380;45.186;9.792;2023-02-19T04:18:08;101865.72;;;2.59;100.00
51297;BME280;37380;45.186;9.792;2023-02-19T04:21:13;101846.56;;;2.26;100.00
51297;BME280;37380;45.186;9.792;2023-02-19T04:24:16;101914.44;;;2.36;100.00
51297;BME280;37380;45.186;9.792;2023-02-19T04:26:45;101883.09;;;2.31;100.00
51297;BME280;37380;45.186;9.792;2023-02-19T04:29:19;101910.81;;;2.34;100.00
51297;BME280;37380;45.186;9.792;2023-02-19T04:32:13;101881.06;;;1.98;100.00
51297;BME280;37380;45.186;9.792;2023-02-19T04:34:40;101849.94;;;1.86;100.00
51297;BME280;37380;45.186;9.792;2023-02-19T04:37:14;101874.59;;;1.93;100.00
51297;BME280;37380;45.186;9.792;2023-02-19T04:40:08;101904.63;;;1.92;100.00
51297;BME280;37380;45.186;9.792;2023-02-19T04:42:36;101821.84;;;1.50;100.00
51297;BME280;37380;45.186;9.792;2023-02-19T04:45:03;101884.59;;;2.19;100.00
51297;BME280;37380;45.186;9.792;2023-02-19T04:47:31;101865.09;;;2.02;100.00
51297;BME280;37380;45.186;9.792;2023-02-19T04:49:58;101799.34;;;1.57;100.00
51297;BME280;37380;45.186;9.792;2023-02-19T04:52:25;101904.75;;;2.33;100.00
51297;BME280;37380;45.186;9.792;2023-02-19T04:54:52;101858.66;;;2.07;100.00
51297;BME280;37380;45.186;9.792;2023-02-19T04:57:19;101853.63;;;2.09;100.00
51297;BME280;37380;45.186;9.792;2023-02-19T04:59:46;101824.16;;;1.86;100.00
51297;BME280;37380;45.186;9.792;2023-02-19T05:02:14;101894.28;;;2.21;100.00
51297;BME280;37380;45.186;9.792;2023-02-19T05:04:41;101878.78;;;1.82;100.00
51297;BME280;37380;45.186;9.792;2023-02-19T05:07:11;101883.22;;;1.93;100.00
51297;BME280;37380;45.186;9.792;2023-02-19T05:09:44;101869.03;;;1.88;100.00
51297;BME280;37380;45.186;9.792;2023-02-19T05:12:45;101838.81;;;1.67;100.00
51297;BME280;37380;45.186;9.792;2023-02-19T05:15:39;101896.81;;;2.11;100.00
51297;BME280;37380;45.186;9.792;2023-02-19T05:18:13;101873.13;;;1.86;100.00
51297;BME280;37380;45.186;9.792;2023-02-19T05:21:14;101877.81;;;2.00;100.00
51297;BME280;37380;45.186;9.792;2023-02-19T05:24:08;101889.69;;;1.98;100.00
51297;BME280;37380;45.186;9.792;2023-02-19T05:26:35;101869.06;;;1.98;100.00
51297;BME280;37380;45.186;9.792;2023-02-19T05:29:02;101888.97;;;2.10;100.00
51297;BME280;37380;45.186;9.792;2023-02-19T05:31:31;101865.09;;;1.73;100.00
51297;BME280;37380;45.186;9.792;2023-02-19T05:34:04;101883.59;;;1.88;100.00
51297;BME280;37380;45.186;9.792;2023-02-19T05:36:39;101873.28;;;2.27;100.00
51297;BME280;37380;45.186;9.792;2023-02-19T05:39:08;101861.47;;;2.00;100.00
51297;BME280;37380;45.186;9.792;2023-02-19T05:41:43;101865.19;;;2.03;100.00
51297;BME280;37380;45.186;9.792;2023-02-19T05:44:44;101894.13;;;2.20;100.00
51297;BME280;37380;45.186;9.792;2023-02-19T05:47:17;101890.94;;;2.22;100.00
51297;BME280;37380;45.186;9.792;2023-02-19T05:49:44;101881.19;;;1.99;100.00
51297;BME280;37380;45.186;9.792;2023-02-19T05:52:12;101878.84;;;1.92;100.00
51297;BME280;37380;45.186;9.792;2023-02-19T05:54:39;101890.00;;;1.83;100.00
51297;BME280;37380;45.186;9.792;2023-02-19T05:57:07;101842.00;;;1.35;100.00
51297;BME280;37380;45.186;9.792;2023-02-19T05:59:34;101872.59;;;1.51;100.00
51297;BME280;37380;45.186;9.792;2023-02-19T06:02:01;101842.69;;;1.43;100.00
51297;BME280;37380;45.186;9.792;2023-02-19T06:04:28;101875.50;;;1.45;100.00
51297;BME280;37380;45.186;9.792;2023-02-19T06:06:55;101839.34;;;1.44;100.00
51297;BME280;37380;45.186;9.792;2023-02-19T06:09:25;101796.97;;;1.21;100.00
51297;BME280;37380;45.186;9.792;2023-02-19T06:11:53;101861.72;;;1.45;100.00
51297;BME280;37380;45.186;9.792;2023-02-19T06:14:27;101845.63;;;1.37;100.00
51297;BME280;37380;45.186;9.792;2023-02-19T06:17:30;101848.03;;;1.35;100.00
51297;BME280;37380;45.186;9.792;2023-02-19T06:20:33;101884.53;;;1.69;100.00
51297;BME280;37380;45.186;9.792;2023-02-19T06:23:28;101885.00;;;1.84;100.00
51297;BME280;37380;45.186;9.792;2023-02-19T06:28:33;101890.28;;;1.86;100.00
51297;BME280;37380;45.186;9.792;2023-02-19T06:31:00;101892.66;;;1.74;100.00
51297;BME280;37380;45.186;9.792;2023-02-19T06:33:28;101842.03;;;1.45;100.00
51297;BME280;37380;45.186;9.792;2023-02-19T06:36:00;101892.28;;;1.50;100.00
51297;BME280;37380;45.186;9.792;2023-02-19T06:38:28;101841.91;;;1.25;100.00
51297;BME280;37380;45.186;9.792;2023-02-19T06:41:00;101870.94;;;1.51;100.00
51297;BME280;37380;45.186;9.792;2023-02-19T06:43:34;101884.22;;;1.85;100.00
51297;BME280;37380;45.186;9.792;2023-02-19T06:46:28;101889.69;;;1.98;100.00
51297;BME280;37380;45.186;9.792;2023-02-19T06:48:55;101831.59;;;1.73;100.00
51297;BME280;37380;45.186;9.792;2023-02-19T06:51:22;101809.47;;;1.85;100.00
51297;BME280;37380;45.186;9.792;2023-02-19T06:53:53;101885.53;;;1.90;100.00
51297;BME280;37380;45.186;9.792;2023-02-19T06:56:29;101864.28;;;1.93;100.00
51297;BME280;37380;45.186;9.792;2023-02-19T06:59:05;101881.13;;;2.29;100.00
51297;BME280;37380;45.186;9.792;2023-02-19T07:02:00;101846.75;;;2.48;100.00
51297;BME280;37380;45.186;9.792;2023-02-19T07:04:27;101814.25;;;2.61;100.00
51297;BME280;37380;45.186;9.792;2023-02-19T07:06:54;101910.19;;;3.49;100.00
51297;BME280;37380;45.186;9.792;2023-02-19T07:09:21;101850.34;;;3.12;100.00
51297;BME280;37380;45.186;9.792;2023-02-19T07:11:49;101874.50;;;2.12;100.00
51297;BME280;37380;45.186;9.792;2023-02-19T07:14:16;101900.13;;;2.39;100.00
51297;BME280;37380;45.186;9.792;2023-02-19T07:16:50;101880.44;;;2.11;100.00
51297;BME280;37380;45.186;9.792;2023-02-19T07:19:51;101878.63;;;2.69;100.00
51297;BME280;37380;45.186;9.792;2023-02-19T07:22:49;101888.66;;;3.28;100.00
51297;BME280;37380;45.186;9.792;2023-02-19T07:25:16;101907.94;;;3.74;100.00
51297;BME280;37380;45.186;9.792;2023-02-19T07:27:43;101907.19;;;3.65;100.00
51297;BME280;37380;45.186;9.792;2023-02-19T07:30:10;101882.53;;;3.58;100.00
51297;BME280;37380;45.186;9.792;2023-02-19T07:32:41;101892.50;;;3.85;100.00
51297;BME280;37380;45.186;9.792;2023-02-19T07:35:08;101863.03;;;4.38;100.00
51297;BME280;37380;45.186;9.792;2023-02-19T07:37:42;101878.91;;;4.20;100.00
51297;BME280;37380;45.186;9.792;2023-02-19T07:40:36;101865.50;;;4.14;100.00
51297;BME280;37380;45.186;9.792;2023-02-19T07:43:03;101884.66;;;4.50;100.00
51297;BME280;37380;45.186;9.792;2023-02-19T07:45:30;101831.88;;;4.14;100.00
51297;BME280;37380;45.186;9.792;2023-02-19T07:47:57;101860.84;;;4.32;100.00
51297;BME280;37380;45.186;9.792;2023-02-19T07:50:24;101880.97;;;4.80;100.00
51297;BME280;37380;45.186;9.792;2023-02-19T07:52:51;101883.47;;;4.90;100.00
51297;BME280;37380;45.186;9.792;2023-02-19T07:55:18;101848.22;;;4.81;100.00
51297;BME280;37380;45.186;9.792;2023-02-19T07:57:45;101888.94;;;5.29;100.00
51297;BME280;37380;45.186;9.792;2023-02-19T08:00:12;101883.50;;;5.02;100.00
51297;BME280;37380;45.186;9.792;2023-02-19T08:02:40;101896.94;;;4.74;100.00
51297;BME280;37380;45.186;9.792;2023-02-19T08:05:34;101890.31;;;4.78;100.00
51297;BME280;37380;45.186;9.792;2023-02-19T08:08:05;101885.28;;;4.36;100.00
51297;BME280;37380;45.186;9.792;2023-02-19T08:10:39;101886.34;;;4.71;100.00
51297;BME280;37380;45.186;9.792;2023-02-19T08:13:51;101875.53;;;5.22;100.00
51297;BME280;37380;45.186;9.792;2023-02-19T08:16:25;101836.00;;;5.60;100.00
51297;BME280;37380;45.186;9.792;2023-02-19T08:19:29;101846.53;;;6.10;100.00
51297;BME280;37380;45.186;9.792;2023-02-19T08:22:30;101846.13;;;6.29;100.00
51297;BME280;37380;45.186;9.792;2023-02-19T08:25:15;101824.03;;;6.48;100.00
51297;BME280;37380;45.186;9.792;2023-02-19T08:27:41;101865.38;;;7.08;100.00
51297;BME280;37380;45.186;9.792;2023-02-19T08:30:09;101834.16;;;5.95;100.00
51297;BME280;37380;45.186;9.792;2023-02-19T08:32:36;101790.34;;;5.62;100.00
51297;BME280;37380;45.186;9.792;2023-02-19T08:35:03;101869.66;;;6.07;100.00
51297;BME280;37380;45.186;9.792;2023-02-19T08:37:32;101884.13;;;5.68;100.00
51297;BME280;37380;45.186;9.792;2023-02-19T08:39:59;101892.78;;;5.81;100.00
51297;BME280;37380;45.186;9.792;2023-02-19T08:42:32;101864.22;;;6.16;100.00
51297;BME280;37380;45.186;9.792;2023-02-19T08:45:26;101878.94;;;6.41;100.00
51297;BME280;37380;45.186;9.792;2023-02-19T08:47:53;101830.00;;;6.22;100.00
51297;BME280;37380;45.186;9.792;2023-02-19T08:50:20;101882.56;;;6.31;100.00
51297;BME280;37380;45.186;9.792;2023-02-19T08:52:48;101864.56;;;6.71;100.00
51297;BME280;37380;45.186;9.792;2023-02-19T08:55:15;101830.50;;;7.05;100.00
51297;BME280;37380;45.186;9.792;2023-02-19T08:57:42;101887.13;;;7.75;100.00
51297;BME280;37380;45.186;9.792;2023-02-19T09:00:09;101871.38;;;8.13;100.00
51297;BME280;37380;45.186;9.792;2023-02-19T09:02:36;101857.28;;;8.38;100.00
51297;BME280;37380;45.186;9.792;2023-02-19T09:05:04;101872.06;;;8.80;100.00
51297;BME280;37380;45.186;9.792;2023-02-19T09:07:41;101858.25;;;8.53;100.00
51297;BME280;37380;45.186;9.792;2023-02-19T09:10:29;101837.28;;;8.80;100.00
51297;BME280;37380;45.186;9.792;2023-02-19T09:12:56;101816.44;;;9.10;100.00
51297;BME280;37380;45.186;9.792;2023-02-19T09:15:23;101834.09;;;9.14;100.00
51297;BME280;37380;45.186;9.792;2023-02-19T09:17:57;101836.38;;;8.65;100.00
51297;BME280;37380;45.186;9.792;2023-02-19T09:21:04;101855.53;;;9.24;100.00
51297;BME280;37380;45.186;9.792;2023-02-19T09:23:58;101853.25;;;9.75;100.00
51297;BME280;37380;45.186;9.792;2023-02-19T09:26:25;101833.91;;;9.11;100.00
51297;BME280;37380;45.186;9.792;2023-02-19T09:28:53;101862.66;;;9.42;100.00
51297;BME280;37380;45.186;9.792;2023-02-19T09:31:20;101843.13;;;9.50;100.00
51297;BME280;37380;45.186;9.792;2023-02-19T09:33:47;101822.09;;;9.78;100.00
51297;BME280;37380;45.186;9.792;2023-02-19T09:36:15;101798.84;;;9.83;100.00
51297;BME280;37380;45.186;9.792;2023-02-19T09:38:42;101811.81;;;9.81;100.00
51297;BME280;37380;45.186;9.792;2023-02-19T09:41:21;101829.50;;;9.70;100.00
51297;BME280;37380;45.186;9.792;2023-02-19T09:43:49;101825.09;;;10.17;100.00
51297;BME280;37380;45.186;9.792;2023-02-19T09:49:15;101828.09;;;10.08;100.00
51297;BME280;37380;45.186;9.792;2023-02-19T09:51:54;101849.25;;;9.82;100.00
51297;BME280;37380;45.186;9.792;2023-02-19T09:54:49;101858.16;;;9.54;100.00
51297;BME280;37380;45.186;9.792;2023-02-19T09:57:18;101859.63;;;9.34;100.00
51297;BME280;37380;45.186;9.792;2023-02-19T09:59:50;101852.75;;;8.92;100.00
51297;BME280;37380;45.186;9.792;2023-02-19T10:02:22;101836.84;;;8.87;100.00
51297;BME280;37380;45.186;9.792;2023-02-19T10:04:50;101821.53;;;9.84;100.00
51297;BME280;37380;45.186;9.792;2023-02-19T10:07:20;101849.00;;;10.08;100.00
51297;BME280;37380;45.186;9.792;2023-02-19T10:09:52;101833.78;;;10.65;100.00
51297;BME280;37380;45.186;9.792;2023-02-19T10:12:26;101804.16;;;11.17;100.00
51297;BME280;37380;45.186;9.792;2023-02-19T10:15:08;101809.16;;;10.94;100.00
51297;BME280;37380;45.186;9.792;2023-02-19T10:18:11;101840.38;;;10.58;100.00
51297;BME280;37380;45.186;9.792;2023-02-19T10:21:21;101830.56;;;10.22;100.00
51297;BME280;37380;45.186;9.792;2023-02-19T10:24:23;101823.16;;;11.30;100.00
51297;BME280;37380;45.186;9.792;2023-02-19T10:26:54;101792.31;;;10.89;100.00
51297;BME280;37380;45.186;9.792;2023-02-19T10:29:21;101803.41;;;11.37;100.00
51297;BME280;37380;45.186;9.792;2023-02-19T10:32:11;101815.59;;;11.19;100.00
51297;BME280;37380;45.186;9.792;2023-02-19T10:34:38;101692.16;;;10.56;100.00
51297;BME280;37380;45.186;9.792;2023-02-19T10:37:10;101765.28;;;10.22;100.00
51297;BME280;37380;45.186;9.792;2023-02-19T10:39:48;101816.06;;;10.59;100.00
51297;BME280;37380;45.186;9.792;2023-02-19T10:42:21;101798.09;;;10.16;100.00
51297;BME280;37380;45.186;9.792;2023-02-19T10:44:53;101809.94;;;10.42;100.00
51297;BME280;37380;45.186;9.792;2023-02-19T10:47:45;101774.63;;;10.18;100.00
51297;BME280;37380;45.186;9.792;2023-02-19T10:50:46;101803.53;;;10.36;100.00
51297;BME280;37380;45.186;9.792;2023-02-19T10:54:03;101804.25;;;10.84;100.00
51297;BME280;37380;45.186;9.792;2023-02-19T11:02:20;101773.13;;;10.88;100.00
51297;BME280;37380;45.186;9.792;2023-02-19T11:08:00;101786.25;;;10.90;100.00
51297;BME280;37380;45.186;9.792;2023-02-19T11:11:05;101754.38;;;11.33;100.00
51297;BME280;37380;45.186;9.792;2023-02-19T11:13:33;101777.50;;;11.24;100.00
51297;BME280;37380;45.186;9.792;2023-02-19T11:16:10;101743.56;;;11.63;100.00
51297;BME280;37380;45.186;9.792;2023-02-19T11:19:04;101740.88;;;11.79;100.00
51297;BME280;37380;45.186;9.792;2023-02-19T11:22:00;101750.06;;;11.71;100.00
51297;BME280;37380;45.186;9.792;2023-02-19T11:24:31;101736.22;;;11.91;100.00
51297;BME280;37380;45.186;9.792;2023-02-19T11:27:04;101764.84;;;11.51;100.00
51297;BME280;37380;45.186;9.792;2023-02-19T11:29:32;101729.47;;;11.96;100.00
51297;BME280;37380;45.186;9.792;2023-02-19T11:32:25;101751.28;;;11.60;100.00
51297;BME280;37380;45.186;9.792;2023-02-19T11:35:13;101625.13;;;11.67;100.00
51297;BME280;37380;45.186;9.792;2023-02-19T11:37:54;101741.53;;;12.72;100.00
51297;BME280;37380;45.186;9.792;2023-02-19T11:40:32;101739.94;;;11.96;100.00
51297;BME280;37380;45.186;9.792;2023-02-19T11:43:28;101723.97;;;11.90;100.00
51297;BME280;37380;45.186;9.792;2023-02-19T11:47:04;101731.88;;;11.74;100.00
51297;BME280;37380;45.186;9.792;2023-02-19T12:03:57;101708.81;;;13.06;100.00
51297;BME280;37380;45.186;9.792;2023-02-19T12:06:43;101665.03;;;12.61;100.00
51297;BME280;37380;45.186;9.792;2023-02-19T12:14:55;101697.13;;;12.98;100.00
51297;BME280;37380;45.186;9.792;2023-02-19T12:21:28;101679.09;;;12.84;100.00
51297;BME280;37380;45.186;9.792;2023-02-19T12:24:56;101696.44;;;13.24;100.00
51297;BME280;37380;45.186;9.792;2023-02-19T12:27:27;101684.03;;;13.41;100.00
51297;BME280;37380;45.186;9.792;2023-02-19T12:30:22;101667.13;;;13.34;100.00
51297;BME280;37380;45.186;9.792;2023-02-19T12:33:06;101668.03;;;13.14;100.00
51297;BME280;37380;45.186;9.792;2023-02-19T12:46:20;101644.34;;;14.30;100.00
51297;BME280;37380;45.186;9.792;2023-02-19T12:50:01;101642.03;;;13.89;100.00
51297;BME280;37380;45.186;9.792;2023-02-19T12:54:20;101637.19;;;14.25;100.00
51297;BME280;37380;45.186;9.792;2023-02-19T12:57:56;101634.78;;;14.32;100.00
51297;BME280;37380;45.186;9.792;2023-02-19T13:00:52;101631.91;;;14.51;100.00
51297;BME280;37380;45.186;9.792;2023-02-19T13:05:28;101611.97;;;14.05;100.00
51297;BME280;37380;45.186;9.792;2023-02-19T13:09:36;101611.53;;;14.18;100.00
51297;BME280;37380;45.186;9.792;2023-02-19T13:12:45;101592.44;;;14.49;100.00
51297;BME280;37380;45.186;9.792;2023-02-19T13:15:42;101615.13;;;14.22;100.00
51297;BME280;37380;45.186;9.792;2023-02-19T13:19:00;101406.75;;;13.45;100.00
51297;BME280;37380;45.186;9.792;2023-02-19T13:23:28;101592.06;;;14.39;100.00
51297;BME280;37380;45.186;9.792;2023-02-19T13:38:56;101565.16;;;14.20;100.00
51297;BME280;37380;45.186;9.792;2023-02-19T13:44:03;101559.25;;;14.53;100.00
51297;BME280;37380;45.186;9.792;2023-02-19T13:48:38;101570.22;;;14.40;100.00
51297;BME280;37380;45.186;9.792;2023-02-19T13:53:54;101557.34;;;14.49;100.00
51297;BME280;37380;45.186;9.792;2023-02-19T13:59:11;101559.81;;;14.71;100.00
51297;BME280;37380;45.186;9.792;2023-02-19T14:12:20;101556.66;;;14.82;100.00
51297;BME280;37380;45.186;9.792;2023-02-19T14:15:40;101553.44;;;14.92;100.00
51297;BME280;37380;45.186;9.792;2023-02-19T14:21:42;101539.22;;;14.85;100.00
51297;BME280;37380;45.186;9.792;2023-02-19T14:24:13;101554.88;;;14.81;100.00
51297;BME280;37380;45.186;9.792;2023-02-19T14:26:42;101497.59;;;14.45;100.00
51297;BME280;37380;45.186;9.792;2023-02-19T14:29:11;101549.63;;;14.81;100.00
51297;BME280;37380;45.186;9.792;2023-02-19T14:31:43;101548.94;;;14.88;100.00
51297;BME280;37380;45.186;9.792;2023-02-19T14:34:17;101420.84;;;14.01;100.00
51297;BME280;37380;45.186;9.792;2023-02-19T14:36:58;101447.44;;;14.10;100.00
51297;BME280;37380;45.186;9.792;2023-02-19T14:39:35;101531.78;;;14.45;100.00
51297;BME280;37380;45.186;9.792;2023-02-19T14:42:14;101537.44;;;14.30;100.00
51297;BME280;37380;45.186;9.792;2023-02-19T14:44:49;101544.94;;;14.18;100.00
51297;BME280;37380;45.186;9.792;2023-02-19T14:47:23;101515.81;;;14.12;100.00
51297;BME280;37380;45.186;9.792;2023-02-19T14:50:01;101534.50;;;14.21;100.00
51297;BME280;37380;45.186;9.792;2023-02-19T14:53:02;101449.72;;;13.47;100.00
51297;BME280;37380;45.186;9.792;2023-02-19T14:55:38;101531.22;;;14.01;100.00
51297;BME280;37380;45.186;9.792;2023-02-19T14:58:30;101533.00;;;14.02;100.00
51297;BME280;37380;45.186;9.792;2023-02-19T15:01:27;101503.59;;;13.87;100.00
51297;BME280;37380;45.186;9.792;2023-02-19T15:04:34;101537.16;;;13.95;100.00
51297;BME280;37380;45.186;9.792;2023-02-19T15:07:35;101533.34;;;13.86;100.00
51297;BME280;37380;45.186;9.792;2023-02-19T15:10:37;101534.13;;;13.83;100.00
51297;BME280;37380;45.186;9.792;2023-02-19T15:13:07;101515.56;;;13.78;100.00
51297;BME280;37380;45.186;9.792;2023-02-19T15:15:42;101530.03;;;13.91;100.00
51297;BME280;37380;45.186;9.792;2023-02-19T15:18:20;101534.78;;;13.77;100.00
51297;BME280;37380;45.186;9.792;2023-02-19T15:21:31;101510.41;;;13.56;100.00
51297;BME280;37380;45.186;9.792;2023-02-19T15:24:25;101494.00;;;13.38;100.00
51297;BME280;37380;45.186;9.792;2023-02-19T15:27:00;101533.84;;;13.50;100.00
51297;BME280;37380;45.186;9.792;2023-02-19T15:29:54;101509.75;;;13.38;100.00
51297;BME280;37380;45.186;9.792;2023-02-19T15:32:23;101523.44;;;13.53;100.00
51297;BME280;37380;45.186;9.792;2023-02-19T15:34:56;101471.88;;;13.07;100.00
51297;BME280;37380;45.186;9.792;2023-02-19T15:37:32;101522.50;;;13.27;100.00
51297;BME280;37380;45.186;9.792;2023-02-19T15:40:29;101516.25;;;13.25;100.00
51297;BME280;37380;45.186;9.792;2023-02-19T15:42:58;101503.69;;;13.16;100.00
51297;BME280;37380;45.186;9.792;2023-02-19T15:45:44;101511.22;;;13.07;100.00
51297;BME280;37380;45.186;9.792;2023-02-19T15:48:19;101518.75;;;12.98;100.00
51297;BME280;37380;45.186;9.792;2023-02-19T15:50:54;101511.09;;;13.04;100.00
51297;BME280;37380;45.186;9.792;2023-02-19T15:53:25;101511.69;;;12.97;100.00
51297;BME280;37380;45.186;9.792;2023-02-19T15:56:06;101483.44;;;12.65;100.00